sensor_id;sensor_type;location;lat;lon;timestamp;pressure;altitude;pressure_sealevel;temperature;humidity
16580;BME280;8402;51.466;6.806;2023-03-15T00:01:57;100881.53;;;5.95;81.21
16580;BME280;8402;51.466;6.806;2023-03-15T00:04:28;100883.13;;;5.96;81.38
16580;BME280;8402;51.466;6.806;2023-03-15T00:06:59;100888.25;;;5.92;82.69
16580;BME280;8402;51.466;6.806;2023-03-15T00:09:48;100902.00;;;5.86;81.98
16580;BME280;8402;51.466;6.806;2023-03-15T00:12:19;100890.19;;;5.87;81.79
16580;BME280;8402;51.466;6.806;2023-03-15T00:15:21;100899.66;;;5.79;84.19
16580;BME280;8402;51.466;6.806;2023-03-15T00:18:07;100902.06;;;5.80;83.29
16580;BME280;8402;51.466;6.806;2023-03-15T00:21:03;100907.16;;;5.77;84.16
16580;BME280;8402;51.466;6.806;2023-03-15T00:24:12;100912.81;;;5.80;84.78
16580;BME280;8402;51.466;6.806;2023-03-15T00:27:17;100916.84;;;5.83;84.26
16580;BME280;8402;51.466;6.806;2023-03-15T00:29:53;100918.16;;;5.86;84.80
16580;BME280;8402;51.466;6.806;2023-03-15T00:36:09;100931.69;;;5.75;88.34
16580;BME280;8402;51.466;6.806;2023-03-15T00:39:03;100929.09;;;5.50;93.03
16580;BME280;8402;51.466;6.806;2023-03-15T00:41:43;100928.00;;;5.61;91.26
16580;BME280;8402;51.466;6.806;2023-03-15T00:44:17;100937.13;;;5.65;90.91
16580;BME280;8402;51.466;6.806;2023-03-15T00:46:49;100933.88;;;5.63;93.01
16580;BME280;8402;51.466;6.806;2023-03-15T00:49:20;100941.72;;;5.65;93.83
16580;BME280;8402;51.466;6.806;2023-03-15T00:51:59;100951.66;;;5.64;95.02
16580;BME280;8402;51.466;6.806;2023-03-15T00:54:36;100952.22;;;5.61;94.22
16580;BME280;8402;51.466;6.806;2023-03-15T00:57:20;100947.41;;;5.53;93.90
16580;BME280;8402;51.466;6.806;2023-03-15T01:00:15;100943.13;;;5.42;95.07
16580;BME280;8402;51.466;6.806;2023-03-15T01:02:55;100943.69;;;5.39;94.57
16580;BME280;8402;51.466;6.806;2023-03-15T01:05:38;100948.53;;;5.32;95.64
16580;BME280;8402;51.466;6.806;2023-03-15T01:08:37;100942.09;;;5.33;95.26
16580;BME280;8402;51.466;6.806;2023-03-15T01:14:32;100948.00;;;5.35;94.33
16580;BME280;8402;51.466;6.806;2023-03-15T01:17:37;100953.41;;;5.24;96.74
16580;BME280;8402;51.466;6.806;2023-03-15T01:20:41;100964.97;;;5.25;95.77
16580;BME280;8402;51.466;6.806;2023-03-15T01:26:58;100965.53;;;5.12;96.42
16580;BME280;8402;51.466;6.806;2023-03-15T01:37:00;100965.81;;;5.05;96.26
16580;BME280;8402;51.466;6.806;2023-03-15T01:43:30;100958.28;;;4.97;96.41
16580;BME280;8402;51.466;6.806;2023-03-15T01:46:06;100952.91;;;5.02;96.65
16580;BME280;8402;51.466;6.806;2023-03-15T01:48:38;100966.91;;;5.09;96.36
16580;BME280;8402;51.466;6.806;2023-03-15T01:51:17;100963.38;;;5.14;96.38
16580;BME280;8402;51.466;6.806;2023-03-15T01:53:53;100959.88;;;5.13;96.44
16580;BME280;8402;51.466;6.806;2023-03-15T01:56:26;100959.88;;;5.18;95.82
16580;BME280;8402;51.466;6.806;2023-03-15T01:58:58;100977.34;;;5.26;96.24
16580;BME280;8402;51.466;6.806;2023-03-15T02:01:30;100970.09;;;5.21;95.97
16580;BME280;8402;51.466;6.806;2023-03-15T02:04:04;100978.16;;;5.27;96.05
16580;BME280;8402;51.466;6.806;2023-03-15T02:06:36;100977.06;;;5.28;95.51
16580;BME280;8402;51.466;6.806;2023-03-15T02:11:59;100979.75;;;5.28;96.52
16580;BME280;8402;51.466;6.806;2023-03-15T02:14:31;100993.75;;;5.30;95.92
16580;BME280;8402;51.466;6.806;2023-03-15T02:28:15;100998.91;;;5.16;97.21
16580;BME280;8402;51.466;6.806;2023-03-15T02:31:06;100997.00;;;5.11;97.94
16580;BME280;8402;51.466;6.806;2023-03-15T02:33:42;101006.16;;;5.15;98.18
16580;BME280;8402;51.466;6.806;2023-03-15T02:36:23;101000.75;;;5.20;97.22
16580;BME280;8402;51.466;6.806;2023-03-15T02:42:34;101006.69;;;5.17;99.56
16580;BME280;8402;51.466;6.806;2023-03-15T02:45:19;101006.94;;;5.21;99.76
16580;BME280;8402;51.466;6.806;2023-03-15T02:47:55;100999.41;;;5.28;97.81
16580;BME280;8402;51.466;6.806;2023-03-15T02:50:27;101010.19;;;5.23;99.17
16580;BME280;8402;51.466;6.806;2023-03-15T02:53:10;100993.50;;;5.16;100.00
16580;BME280;8402;51.466;6.806;2023-03-15T02:56:13;101012.59;;;5.19;98.78
16580;BME280;8402;51.466;6.806;2023-03-15T02:59:12;101008.84;;;5.05;100.00
16580;BME280;8402;51.466;6.806;2023-03-15T03:02:02;101006.97;;;4.90;100.00
16580;BME280;8402;51.466;6.806;2023-03-15T03:04:33;101025.53;;;4.92;100.00
16580;BME280;8402;51.466;6.806;2023-03-15T03:07:07;101016.91;;;4.85;100.00
16580;BME280;8402;51.466;6.806;2023-03-15T03:09:38;101023.66;;;4.87;100.00
16580;BME280;8402;51.466;6.806;2023-03-15T03:12:17;101037.91;;;4.88;100.00
16580;BME280;8402;51.466;6.806;2023-03-15T03:15:16;101046.75;;;4.83;99.22
16580;BME280;8402;51.466;6.806;2023-03-15T03:18:18;101047.59;;;4.79;99.28
16580;BME280;8402;51.466;6.806;2023-03-15T03:20:58;101043.25;;;4.78;99.36
16580;BME280;8402;51.466;6.806;2023-03-15T03:24:22;101049.47;;;4.73;100.00
16580;BME280;8402;51.466;6.806;2023-03-15T03:26:53;101058.84;;;4.76;99.99
16580;BME280;8402;51.466;6.806;2023-03-15T03:29:36;101060.47;;;4.77;99.65
16580;BME280;8402;51.466;6.806;2023-03-15T03:32:14;101063.72;;;4.79;99.98
16580;BME280;8402;51.466;6.806;2023-03-15T03:35:11;101059.94;;;4.80;99.92
16580;BME280;8402;51.466;6.806;2023-03-15T03:37:42;101071.22;;;4.82;99.94
16580;BME280;8402;51.466;6.806;2023-03-15T03:40:15;101062.63;;;4.85;99.70
16580;BME280;8402;51.466;6.806;2023-03-15T03:46:49;101082.00;;;4.87;100.00
16580;BME280;8402;51.466;6.806;2023-03-15T03:49:38;101088.19;;;4.97;100.00
16580;BME280;8402;51.466;6.806;2023-03-15T03:55:41;101093.31;;;5.14;99.36
16580;BME280;8402;51.466;6.806;2023-03-15T03:58:12;101096.00;;;5.14;98.74
16580;BME280;8402;51.466;6.806;2023-03-15T04:00:42;101102.44;;;5.18;98.52
16580;BME280;8402;51.466;6.806;2023-03-15T04:03:12;101111.31;;;5.19;98.28
16580;BME280;8402;51.466;6.806;2023-03-15T04:05:42;101116.44;;;5.15;98.40
16580;BME280;8402;51.466;6.806;2023-03-15T04:08:13;101114.84;;;5.14;98.28
16580;BME280;8402;51.466;6.806;2023-03-15T04:10:48;101121.28;;;5.18;98.22
16580;BME280;8402;51.466;6.806;2023-03-15T04:13:22;101125.06;;;5.22;98.13
16580;BME280;8402;51.466;6.806;2023-03-15T04:15:56;101114.84;;;5.24;98.02
16580;BME280;8402;51.466;6.806;2023-03-15T04:18:27;101119.66;;;5.28;97.81
16580;BME280;8402;51.466;6.806;2023-03-15T04:20:57;101130.97;;;5.35;97.61
16580;BME280;8402;51.466;6.806;2023-03-15T04:23:27;101126.94;;;5.32;97.57
16580;BME280;8402;51.466;6.806;2023-03-15T04:26:00;101129.91;;;5.31;97.67
16580;BME280;8402;51.466;6.806;2023-03-15T04:28:31;101135.56;;;5.24;97.26
16580;BME280;8402;51.466;6.806;2023-03-15T04:31:04;101150.34;;;5.16;97.53
16580;BME280;8402;51.466;6.806;2023-03-15T04:33:36;101138.50;;;5.12;97.76
16580;BME280;8402;51.466;6.806;2023-03-15T04:36:07;101142.00;;;5.08;97.94
16580;BME280;8402;51.466;6.806;2023-03-15T04:38:45;101133.66;;;5.04;98.09
16580;BME280;8402;51.466;6.806;2023-03-15T04:41:17;101146.00;;;5.05;98.06
16580;BME280;8402;51.466;6.806;2023-03-15T04:43:47;101134.72;;;5.03;97.96
16580;BME280;8402;51.466;6.806;2023-03-15T04:46:17;101138.50;;;5.02;98.46
16580;BME280;8402;51.466;6.806;2023-03-15T04:48:50;101137.44;;;5.08;98.82
16580;BME280;8402;51.466;6.806;2023-03-15T04:51:20;101143.06;;;5.17;98.77
16580;BME280;8402;51.466;6.806;2023-03-15T04:53:50;101139.31;;;5.18;98.49
16580;BME280;8402;51.466;6.806;2023-03-15T04:56:23;101136.06;;;5.21;98.29
16580;BME280;8402;51.466;6.806;2023-03-15T04:58:53;101154.09;;;5.20;97.88
16580;BME280;8402;51.466;6.806;2023-03-15T05:01:27;101148.19;;;5.18;98.31
16580;BME280;8402;51.466;6.806;2023-03-15T05:03:58;101151.41;;;5.15;97.96
16580;BME280;8402;51.466;6.806;2023-03-15T05:06:29;101154.91;;;5.16;97.99
16580;BME280;8402;51.466;6.806;2023-03-15T05:08:59;101157.88;;;5.14;97.92
16580;BME280;8402;51.466;6.806;2023-03-15T05:11:32;101162.97;;;5.11;98.13
16580;BME280;8402;51.466;6.806;2023-03-15T05:14:02;101169.69;;;5.08;98.09
16580;BME280;8402;51.466;6.806;2023-03-15T05:16:32;101173.19;;;5.04;98.28
16580;BME280;8402;51.466;6.806;2023-03-15T05:19:02;101195.50;;;5.04;98.20
16580;BME280;8402;51.466;6.806;2023-03-15T05:21:32;101192.28;;;5.02;98.37
16580;BME280;8402;51.466;6.806;2023-03-15T05:24:02;101189.88;;;5.01;98.64
16580;BME280;8402;51.466;6.806;2023-03-15T05:26:36;101198.16;;;4.99;98.91
16580;BME280;8402;51.466;6.806;2023-03-15T05:29:06;101191.69;;;4.90;98.69
16580;BME280;8402;51.466;6.806;2023-03-15T05:31:39;101206.19;;;4.84;100.00
16580;BME280;8402;51.466;6.806;2023-03-15T05:34:10;101205.38;;;4.83;99.78
16580;BME280;8402;51.466;6.806;2023-03-15T05:36:40;101200.81;;;4.84;99.76
16580;BME280;8402;51.466;6.806;2023-03-15T05:39:10;101218.56;;;4.85;99.83
16580;BME280;8402;51.466;6.806;2023-03-15T05:41:45;101227.19;;;4.87;100.00
16580;BME280;8402;51.466;6.806;2023-03-15T05:44:15;101229.31;;;4.85;100.00
16580;BME280;8402;51.466;6.806;2023-03-15T05:46:45;101227.72;;;4.84;100.00
16580;BME280;8402;51.466;6.806;2023-03-15T05:49:15;101236.88;;;4.88;100.00
16580;BME280;8402;51.466;6.806;2023-03-15T05:51:45;101236.34;;;4.86;100.00
16580;BME280;8402;51.466;6.806;2023-03-15T05:54:15;101240.63;;;4.82;100.00
16580;BME280;8402;51.466;6.806;2023-03-15T05:56:47;101243.06;;;4.88;100.00
16580;BME280;8402;51.466;6.806;2023-03-15T05:59:17;101252.47;;;4.91;100.00
16580;BME280;8402;51.466;6.806;2023-03-15T06:01:47;101255.97;;;4.91;100.00
16580;BME280;8402;51.466;6.806;2023-03-15T06:04:17;101253.81;;;4.88;100.00
16580;BME280;8402;51.466;6.806;2023-03-15T06:06:47;101269.19;;;4.93;100.00
16580;BME280;8402;51.466;6.806;2023-03-15T06:09:17;101259.97;;;4.84;100.00
16580;BME280;8402;51.466;6.806;2023-03-15T06:11:51;101262.69;;;4.89;100.00
16580;BME280;8402;51.466;6.806;2023-03-15T06:14:21;101263.78;;;4.93;100.00
16580;BME280;8402;51.466;6.806;2023-03-15T06:16:52;101258.94;;;4.90;100.00
16580;BME280;8402;51.466;6.806;2023-03-15T06:19:23;101257.31;;;4.89;100.00
16580;BME280;8402;51.466;6.806;2023-03-15T06:21:53;101272.41;;;4.95;100.00
16580;BME280;8402;51.466;6.806;2023-03-15T06:24:23;101264.31;;;4.90;100.00
16580;BME280;8402;51.466;6.806;2023-03-15T06:26:57;101279.06;;;4.82;100.00
16580;BME280;8402;51.466;6.806;2023-03-15T06:29:27;101283.13;;;4.90;100.00
16580;BME280;8402;51.466;6.806;2023-03-15T06:31:57;101277.47;;;4.91;100.00
16580;BME280;8402;51.466;6.806;2023-03-15T06:34:27;101291.19;;;4.90;100.00
16580;BME280;8402;51.466;6.806;2023-03-15T06:36:57;101287.16;;;4.87;100.00
16580;BME280;8402;51.466;6.806;2023-03-15T06:39:29;101293.88;;;4.90;100.00
16580;BME280;8402;51.466;6.806;2023-03-15T06:42:04;101299.28;;;4.95;100.00
16580;BME280;8402;51.466;6.806;2023-03-15T06:44:35;101305.75;;;4.99;100.00
16580;BME280;8402;51.466;6.806;2023-03-15T06:47:06;101306.88;;;5.08;100.00
16580;BME280;8402;51.466;6.806;2023-03-15T06:49:37;101307.41;;;5.05;100.00
16580;BME280;8402;51.466;6.806;2023-03-15T06:52:08;101312.53;;;5.12;100.00
16580;BME280;8402;51.466;6.806;2023-03-15T06:54:40;101311.47;;;5.18;100.00
16580;BME280;8402;51.466;6.806;2023-03-15T06:57:14;101315.53;;;5.15;100.00
16580;BME280;8402;51.466;6.806;2023-03-15T06:59:44;101328.41;;;5.13;100.00
16580;BME280;8402;51.466;6.806;2023-03-15T07:02:16;101329.72;;;5.01;100.00
16580;BME280;8402;51.466;6.806;2023-03-15T07:04:48;101335.91;;;5.01;100.00
16580;BME280;8402;51.466;6.806;2023-03-15T07:07:18;101352.56;;;5.03;100.00
16580;BME280;8402;51.466;6.806;2023-03-15T07:09:51;101336.97;;;5.05;100.00
16580;BME280;8402;51.466;6.806;2023-03-15T07:12:24;101355.53;;;5.07;100.00
16580;BME280;8402;51.466;6.806;2023-03-15T07:14:54;101345.88;;;5.11;100.00
16580;BME280;8402;51.466;6.806;2023-03-15T07:17:42;101352.88;;;5.12;100.00
16580;BME280;8402;51.466;6.806;2023-03-15T07:20:12;101355.34;;;5.18;100.00
16580;BME280;8402;51.466;6.806;2023-03-15T07:22:42;101365.59;;;5.27;100.00
16580;BME280;8402;51.466;6.806;2023-03-15T07:25:13;101366.69;;;5.31;100.00
16580;BME280;8402;51.466;6.806;2023-03-15T07:27:52;101372.59;;;5.33;100.00
16580;BME280;8402;51.466;6.806;2023-03-15T07:30:23;101372.63;;;5.38;100.00
16580;BME280;8402;51.466;6.806;2023-03-15T07:32:53;101380.72;;;5.38;100.00
16580;BME280;8402;51.466;6.806;2023-03-15T07:35:24;101382.88;;;5.41;100.00
16580;BME280;8402;51.466;6.806;2023-03-15T07:37:54;101394.44;;;5.41;100.00
16580;BME280;8402;51.466;6.806;2023-03-15T07:40:26;101399.03;;;5.46;100.00
16580;BME280;8402;51.466;6.806;2023-03-15T07:42:59;101394.47;;;5.46;100.00
16580;BME280;8402;51.466;6.806;2023-03-15T07:45:29;101392.59;;;5.47;100.00
16580;BME280;8402;51.466;6.806;2023-03-15T07:47:59;101405.00;;;5.53;100.00
16580;BME280;8402;51.466;6.806;2023-03-15T07:50:29;101407.72;;;5.63;100.00
16580;BME280;8402;51.466;6.806;2023-03-15T07:52:59;101416.88;;;5.67;100.00
16580;BME280;8402;51.466;6.806;2023-03-15T07:55:30;101422.06;;;5.79;100.00
16580;BME280;8402;51.466;6.806;2023-03-15T07:58:03;101433.91;;;5.83;100.00
16580;BME280;8402;51.466;6.806;2023-03-15T08:00:33;101437.94;;;5.86;100.00
16580;BME280;8402;51.466;6.806;2023-03-15T08:03:03;101445.22;;;5.90;100.00
16580;BME280;8402;51.466;6.806;2023-03-15T08:05:33;101444.75;;;5.93;100.00
16580;BME280;8402;51.466;6.806;2023-03-15T08:08:06;101442.84;;;5.99;100.00
16580;BME280;8402;51.466;6.806;2023-03-15T08:10:36;101452.31;;;6.01;100.00
16580;BME280;8402;51.466;6.806;2023-03-15T08:13:09;101456.34;;;6.04;100.00
16580;BME280;8402;51.466;6.806;2023-03-15T08:15:39;101457.16;;;6.04;100.00
16580;BME280;8402;51.466;6.806;2023-03-15T08:18:09;101463.34;;;6.05;100.00
16580;BME280;8402;51.466;6.806;2023-03-15T08:20:39;101466.84;;;6.05;100.00
16580;BME280;8402;51.466;6.806;2023-03-15T08:23:09;101462.25;;;6.06;100.00
16580;BME280;8402;51.466;6.806;2023-03-15T08:25:43;101471.75;;;6.24;100.00
16580;BME280;8402;51.466;6.806;2023-03-15T08:28:15;101472.03;;;6.48;100.00
16580;BME280;8402;51.466;6.806;2023-03-15T08:30:46;101470.97;;;6.64;100.00
16580;BME280;8402;51.466;6.806;2023-03-15T08:33:16;101467.19;;;6.75;100.00
16580;BME280;8402;51.466;6.806;2023-03-15T08:35:53;101476.34;;;6.84;100.00
16580;BME280;8402;51.466;6.806;2023-03-15T08:38:24;101476.34;;;7.05;100.00
16580;BME280;8402;51.466;6.806;2023-03-15T08:40:55;101481.19;;;7.23;100.00
16580;BME280;8402;51.466;6.806;2023-03-15T08:43:28;101486.53;;;7.28;100.00
16580;BME280;8402;51.466;6.806;2023-03-15T08:45:58;101480.56;;;7.47;100.00
16580;BME280;8402;51.466;6.806;2023-03-15T08:48:28;101483.19;;;7.67;100.00
16580;BME280;8402;51.466;6.806;2023-03-15T08:51:04;101482.63;;;7.80;99.17
16580;BME280;8402;51.466;6.806;2023-03-15T08:53:35;101492.81;;;7.93;98.69
16580;BME280;8402;51.466;6.806;2023-03-15T08:56:08;101498.97;;;8.04;98.53
16580;BME280;8402;51.466;6.806;2023-03-15T08:58:40;101503.50;;;8.14;97.23
16580;BME280;8402;51.466;6.806;2023-03-15T09:01:12;101505.38;;;8.18;97.01
16580;BME280;8402;51.466;6.806;2023-03-15T09:03:42;101514.50;;;8.27;97.13
16580;BME280;8402;51.466;6.806;2023-03-15T09:06:14;101511.50;;;8.34;96.00
16580;BME280;8402;51.466;6.806;2023-03-15T09:08:48;101513.13;;;8.40;95.50
16580;BME280;8402;51.466;6.806;2023-03-15T09:11:21;101519.00;;;8.52;95.31
16580;BME280;8402;51.466;6.806;2023-03-15T09:13:54;101519.97;;;8.67;94.06
16580;BME280;8402;51.466;6.806;2023-03-15T09:16:26;101523.09;;;8.84;93.71
16580;BME280;8402;51.466;6.806;2023-03-15T09:18:59;101513.84;;;8.90;93.57
16580;BME280;8402;51.466;6.806;2023-03-15T09:21:31;101532.91;;;8.75;92.58
16580;BME280;8402;51.466;6.806;2023-03-15T09:24:01;101530.31;;;8.60;93.23
16580;BME280;8402;51.466;6.806;2023-03-15T09:26:34;101534.94;;;8.54;93.84
16580;BME280;8402;51.466;6.806;2023-03-15T09:29:06;101539.38;;;8.40;93.59
16580;BME280;8402;51.466;6.806;2023-03-15T09:31:37;101552.13;;;8.24;93.00
16580;BME280;8402;51.466;6.806;2023-03-15T09:34:07;101551.09;;;8.15;93.85
16580;BME280;8402;51.466;6.806;2023-03-15T09:36:47;101551.41;;;8.08;94.67
16580;BME280;8402;51.466;6.806;2023-03-15T09:39:22;101556.53;;;7.99;93.82
16580;BME280;8402;51.466;6.806;2023-03-15T09:41:55;101563.56;;;8.06;94.10
16580;BME280;8402;51.466;6.806;2023-03-15T09:44:43;101568.44;;;8.04;91.43
16580;BME280;8402;51.466;6.806;2023-03-15T09:47:29;101564.84;;;8.23;93.47
16580;BME280;8402;51.466;6.806;2023-03-15T09:50:08;101566.66;;;8.43;93.10
16580;BME280;8402;51.466;6.806;2023-03-15T09:52:46;101556.41;;;8.40;91.86
16580;BME280;8402;51.466;6.806;2023-03-15T09:55:20;101559.66;;;8.32;90.94
16580;BME280;8402;51.466;6.806;2023-03-15T09:57:52;101564.53;;;8.35;91.98
16580;BME280;8402;51.466;6.806;2023-03-15T10:00:32;101555.34;;;8.36;91.42
16580;BME280;8402;51.466;6.806;2023-03-15T10:03:14;101559.38;;;8.34;90.72
16580;BME280;8402;51.466;6.806;2023-03-15T10:05:48;101567.22;;;8.40;91.53
16580;BME280;8402;51.466;6.806;2023-03-15T10:08:20;101556.78;;;8.63;91.80
16580;BME280;8402;51.466;6.806;2023-03-15T10:10:52;101558.75;;;8.91;92.02
16580;BME280;8402;51.466;6.806;2023-03-15T10:13:41;101552.09;;;9.13;89.33
16580;BME280;8402;51.466;6.806;2023-03-15T10:16:26;101545.09;;;9.35;89.16
16580;BME280;8402;51.466;6.806;2023-03-15T10:19:05;101549.03;;;9.48;89.23
16580;BME280;8402;51.466;6.806;2023-03-15T10:21:54;101553.97;;;9.41;87.96
16580;BME280;8402;51.466;6.806;2023-03-15T10:24:46;101559.41;;;9.41;89.05
16580;BME280;8402;51.466;6.806;2023-03-15T10:27:20;101562.91;;;9.42;89.03
16580;BME280;8402;51.466;6.806;2023-03-15T10:29:54;101566.50;;;9.37;88.67
16580;BME280;8402;51.466;6.806;2023-03-15T10:32:29;101564.63;;;9.32;87.38
16580;BME280;8402;51.466;6.806;2023-03-15T10:35:00;101556.41;;;9.43;88.35
16580;BME280;8402;51.466;6.806;2023-03-15T10:37:30;101549.34;;;9.71;89.37
16580;BME280;8402;51.466;6.806;2023-03-15T10:40:01;101555.56;;;9.95;89.38
16580;BME280;8402;51.466;6.806;2023-03-15T10:42:34;101564.97;;;10.03;87.97
16580;BME280;8402;51.466;6.806;2023-03-15T10:45:18;101569.69;;;9.92;83.41
16580;BME280;8402;51.466;6.806;2023-03-15T10:47:53;101567.28;;;10.14;85.30
16580;BME280;8402;51.466;6.806;2023-03-15T10:50:29;101562.41;;;10.35;85.51
16580;BME280;8402;51.466;6.806;2023-03-15T10:53:01;101569.66;;;10.40;83.58
16580;BME280;8402;51.466;6.806;2023-03-15T10:55:42;101566.28;;;10.48;83.38
16580;BME280;8402;51.466;6.806;2023-03-15T10:58:20;101554.09;;;10.64;81.45
16580;BME280;8402;51.466;6.806;2023-03-15T11:00:52;101559.75;;;10.87;83.14
16580;BME280;8402;51.466;6.806;2023-03-15T11:03:26;101556.78;;;11.02;81.42
16580;BME280;8402;51.466;6.806;2023-03-15T11:05:58;101566.78;;;11.20;81.12
16580;BME280;8402;51.466;6.806;2023-03-15T11:08:36;101570.47;;;11.29;78.96
16580;BME280;8402;51.466;6.806;2023-03-15T11:11:07;101574.78;;;11.30;79.52
16580;BME280;8402;51.466;6.806;2023-03-15T11:13:38;101565.72;;;11.35;80.34
16580;BME280;8402;51.466;6.806;2023-03-15T11:16:20;101574.75;;;11.17;72.76
16580;BME280;8402;51.466;6.806;2023-03-15T11:18:56;101583.28;;;11.10;77.54
16580;BME280;8402;51.466;6.806;2023-03-15T11:21:30;101582.53;;;11.05;80.15
16580;BME280;8402;51.466;6.806;2023-03-15T11:24:03;101590.06;;;10.94;78.91
16580;BME280;8402;51.466;6.806;2023-03-15T11:26:36;101592.97;;;10.79;77.33
16580;BME280;8402;51.466;6.806;2023-03-15T11:29:13;101599.75;;;10.62;76.32
16580;BME280;8402;51.466;6.806;2023-03-15T11:31:44;101596.28;;;10.57;77.53
16580;BME280;8402;51.466;6.806;2023-03-15T11:34:24;101601.28;;;10.50;77.58
16580;BME280;8402;51.466;6.806;2023-03-15T11:36:59;101604.53;;;10.52;78.26
16580;BME280;8402;51.466;6.806;2023-03-15T11:39:39;101603.06;;;10.59;79.14
16580;BME280;8402;51.466;6.806;2023-03-15T11:42:15;101608.47;;;10.78;78.28
16580;BME280;8402;51.466;6.806;2023-03-15T11:44:50;101606.13;;;10.90;75.79
16580;BME280;8402;51.466;6.806;2023-03-15T11:47:33;101603.03;;;10.97;73.27
16580;BME280;8402;51.466;6.806;2023-03-15T11:50:14;101598.47;;;11.11;74.25
16580;BME280;8402;51.466;6.806;2023-03-15T11:52:47;101600.00;;;11.17;70.69
16580;BME280;8402;51.466;6.806;2023-03-15T11:55:21;101598.81;;;11.23;74.17
16580;BME280;8402;51.466;6.806;2023-03-15T11:57:53;101598.63;;;11.34;74.54
16580;BME280;8402;51.466;6.806;2023-03-15T12:00:48;101604.69;;;11.30;69.50
16580;BME280;8402;51.466;6.806;2023-03-15T12:03:40;101599.44;;;11.34;71.54
16580;BME280;8402;51.466;6.806;2023-03-15T12:06:37;101602.06;;;11.39;67.93
16580;BME280;8402;51.466;6.806;2023-03-15T12:09:46;101602.63;;;11.22;65.68
16580;BME280;8402;51.466;6.806;2023-03-15T12:12:44;101603.44;;;11.23;65.63
16580;BME280;8402;51.466;6.806;2023-03-15T12:15:45;101601.84;;;11.36;65.66
16580;BME280;8402;51.466;6.806;2023-03-15T12:18:19;101593.03;;;11.44;67.66
16580;BME280;8402;51.466;6.806;2023-03-15T12:20:55;101598.28;;;11.54;66.02
16580;BME280;8402;51.466;6.806;2023-03-15T12:23:37;101601.50;;;11.56;64.46
16580;BME280;8402;51.466;6.806;2023-03-15T12:26:15;101593.19;;;11.66;66.55
16580;BME280;8402;51.466;6.806;2023-03-15T12:28:52;101588.72;;;11.70;66.86
16580;BME280;8402;51.466;6.806;2023-03-15T12:32:03;101598.69;;;11.61;62.35
16580;BME280;8402;51.466;6.806;2023-03-15T12:34:43;101593.66;;;11.68;63.32
16580;BME280;8402;51.466;6.806;2023-03-15T12:37:17;101592.66;;;11.64;63.01
16580;BME280;8402;51.466;6.806;2023-03-15T12:39:59;101581.78;;;11.64;63.67
16580;BME280;8402;51.466;6.806;2023-03-15T12:43:01;101576.75;;;11.71;62.36
16580;BME280;8402;51.466;6.806;2023-03-15T12:45:39;101579.81;;;11.83;64.84
16580;BME280;8402;51.466;6.806;2023-03-15T12:48:24;101585.25;;;11.83;66.92
16580;BME280;8402;51.466;6.806;2023-03-15T12:53:51;101593.63;;;11.87;64.04
16580;BME280;8402;51.466;6.806;2023-03-15T12:56:42;101582.75;;;11.87;63.91
16580;BME280;8402;51.466;6.806;2023-03-15T12:59:23;101598.53;;;11.99;63.62
16580;BME280;8402;51.466;6.806;2023-03-15T13:01:56;101584.06;;;12.03;64.26
16580;BME280;8402;51.466;6.806;2023-03-15T13:04:28;101583.66;;;12.10;64.68
16580;BME280;8402;51.466;6.806;2023-03-15T13:07:21;101581.41;;;11.84;57.09
16580;BME280;8402;51.466;6.806;2023-03-15T13:10:04;101582.84;;;11.96;60.27
16580;BME280;8402;51.466;6.806;2023-03-15T13:12:51;101589.09;;;11.96;59.89
16580;BME280;8402;51.466;6.806;2023-03-15T13:15:26;101590.38;;;11.99;62.21
16580;BME280;8402;51.466;6.806;2023-03-15T13:18:08;101585.88;;;12.08;63.07
16580;BME280;8402;51.466;6.806;2023-03-15T13:20:52;101585.34;;;12.06;60.98
16580;BME280;8402;51.466;6.806;2023-03-15T13:23:27;101586.16;;;12.20;63.00
16580;BME280;8402;51.466;6.806;2023-03-15T13:26:07;101586.16;;;12.20;60.21
16580;BME280;8402;51.466;6.806;2023-03-15T13:28:49;101587.25;;;12.19;57.95
16580;BME280;8402;51.466;6.806;2023-03-15T13:31:24;101583.63;;;12.24;61.55
16580;BME280;8402;51.466;6.806;2023-03-15T13:34:09;101592.09;;;12.22;59.02
16580;BME280;8402;51.466;6.806;2023-03-15T13:36:41;101588.66;;;12.30;62.60
16580;BME280;8402;51.466;6.806;2023-03-15T13:39:21;101585.41;;;12.28;59.45
16580;BME280;8402;51.466;6.806;2023-03-15T13:41:56;101589.25;;;12.27;55.65
16580;BME280;8402;51.466;6.806;2023-03-15T13:44:30;101589.47;;;12.17;56.54
16580;BME280;8402;51.466;6.806;2023-03-15T13:47:00;101588.88;;;12.20;59.50
16580;BME280;8402;51.466;6.806;2023-03-15T13:49:32;101589.66;;;12.34;60.42
16580;BME280;8402;51.466;6.806;2023-03-15T13:52:03;101585.63;;;12.46;60.13
16580;BME280;8402;51.466;6.806;2023-03-15T13:54:40;101580.66;;;12.48;59.88
16580;BME280;8402;51.466;6.806;2023-03-15T13:57:13;101579.78;;;12.38;56.36
16580;BME280;8402;51.466;6.806;2023-03-15T13:59:49;101586.25;;;12.29;51.56
16580;BME280;8402;51.466;6.806;2023-03-15T14:02:22;101595.47;;;12.42;56.66
16580;BME280;8402;51.466;6.806;2023-03-15T14:04:56;101587.22;;;12.47;55.71
16580;BME280;8402;51.466;6.806;2023-03-15T14:07:28;101598.00;;;12.52;56.31
16580;BME280;8402;51.466;6.806;2023-03-15T14:10:07;101594.34;;;12.56;55.46
16580;BME280;8402;51.466;6.806;2023-03-15T14:12:37;101590.59;;;12.66;56.53
16580;BME280;8402;51.466;6.806;2023-03-15T14:15:17;101589.09;;;12.60;50.93
16580;BME280;8402;51.466;6.806;2023-03-15T14:17:54;101591.19;;;12.63;55.41
16580;BME280;8402;51.466;6.806;2023-03-15T14:20:28;101585.16;;;12.66;54.75
16580;BME280;8402;51.466;6.806;2023-03-15T14:23:01;101594.03;;;12.72;55.76
16580;BME280;8402;51.466;6.806;2023-03-15T14:25:33;101595.75;;;12.67;54.76
16580;BME280;8402;51.466;6.806;2023-03-15T14:28:05;101601.56;;;12.75;55.98
16580;BME280;8402;51.466;6.806;2023-03-15T14:30:37;101596.28;;;12.78;55.73
16580;BME280;8402;51.466;6.806;2023-03-15T14:33:23;101594.56;;;12.82;54.73
16580;BME280;8402;51.466;6.806;2023-03-15T14:35:57;101595.75;;;12.90;54.33
16580;BME280;8402;51.466;6.806;2023-03-15T14:38:32;101606.16;;;12.88;53.78
16580;BME280;8402;51.466;6.806;2023-03-15T14:41:22;101600.34;;;12.81;50.30
16580;BME280;8402;51.466;6.806;2023-03-15T14:43:53;101610.28;;;12.85;53.00